sensor_id;sensor_type;location;lat;lon;timestamp;P1;P4;P2;P0;N10;N4;N25;N1;N05;TS
78730;SPS30;68055;51.978;5.658;2023-12-29T00:00:10;3.9;3.6;3.0;2.2;;;;1.0;32.0;
78730;SPS30;68055;51.978;5.658;2023-12-29T00:02:39;3.2;3.0;2.5;1.8;;;;1.0;28.0;
78730;SPS30;68055;51.978;5.658;2023-12-29T00:05:08;3.8;3.6;3.0;2.2;;;;1.0;28.0;
78730;SPS30;68055;51.978;5.658;2023-12-29T00:07:37;3.7;3.4;2.9;2.1;;;;1.0;28.0;
78730;SPS30;68055;51.978;5.658;2023-12-29T00:10:06;3.4;3.1;2.6;1.9;;;;1.0;29.0;
78730;SPS30;68055;51.978;5.658;2023-12-29T00:12:35;4.4;4.1;3.4;2.5;;;;1.0;28.0;
78730;SPS30;68055;51.978;5.658;2023-12-29T00:15:04;3.4;3.1;2.6;1.9;;;;1.0;27.0;
78730;SPS30;68055;51.978;5.658;2023-12-29T00:17:33;4.0;3.7;3.1;2.3;;;;1.0;27.0;
78730;SPS30;68055;51.978;5.658;2023-12-29T00:20:03;3.1;2.9;2.4;1.8;;;;1.0;26.0;
78730;SPS30;68055;51.978;5.658;2023-12-29T00:22:33;2.9;2.7;2.2;1.6;;;;1.0;25.0;
78730;SPS30;68055;51.978;5.658;2023-12-29T00:25:04;3.7;3.4;2.8;2.0;;;;1.0;24.0;
78730;SPS30;68055;51.978;5.658;2023-12-29T00:27:34;4.3;4.0;3.4;2.4;;;;1.0;24.0;
78730;SPS30;68055;51.978;5.658;2023-12-29T00:30:04;3.0;2.7;2.3;1.6;;;;1.0;24.0;
78730;SPS30;68055;51.978;5.658;2023-12-29T00:32:33;3.3;3.0;2.5;1.9;;;;1.0;25.0;
78730;SPS30;68055;51.978;5.658;2023-12-29T00:35:02;3.6;3.4;2.8;2.0;;;;1.0;25.0;
78730;SPS30;68055;51.978;5.658;2023-12-29T00:37:31;3.3;3.1;2.6;1.9;;;;1.0;25.0;
78730;SPS30;68055;51.978;5.658;2023-12-29T00:39:59;4.6;4.3;3.6;2.7;;;;1.0;25.0;
78730;SPS30;68055;51.978;5.658;2023-12-29T00:42:28;3.3;3.1;2.6;1.9;;;;1.0;25.0;
78730;SPS30;68055;51.978;5.658;2023-12-29T00:44:57;4.0;3.7;3.1;2.3;;;;1.0;24.0;
78730;SPS30;68055;51.978;5.658;2023-12-29T00:47:25;3.6;3.3;2.8;2.1;;;;1.0;26.0;
78730;SPS30;68055;51.978;5.658;2023-12-29T00:49:54;3.4;3.2;2.7;2.0;;;;1.0;27.0;
78730;SPS30;68055;51.978;5.658;2023-12-29T00:54:53;3.7;3.5;3.0;2.3;;;;1.0;29.0;
78730;SPS30;68055;51.978;5.658;2023-12-29T00:57:21;3.5;3.3;2.8;2.0;;;;1.0;30.0;
78730;SPS30;68055;51.978;5.658;2023-12-29T00:59:50;3.5;3.2;2.7;2.0;;;;1.0;29.0;
78730;SPS30;68055;51.978;5.658;2023-12-29T01:02:18;3.2;3.0;2.5;1.9;;;;1.0;29.0;
78730;SPS30;68055;51.978;5.658;2023-12-29T01:04:47;3.6;3.3;2.8;2.1;;;;1.0;28.0;
78730;SPS30;68055;51.978;5.658;2023-12-29T01:07:15;3.3;3.1;2.6;2.0;;;;1.0;28.0;
78730;SPS30;68055;51.978;5.658;2023-12-29T01:09:44;4.0;3.8;3.2;2.3;;;;1.0;28.0;
78730;SPS30;68055;51.978;5.658;2023-12-29T01:12:12;3.2;3.0;2.5;1.9;;;;1.0;28.0;
78730;SPS30;68055;51.978;5.658;2023-12-29T01:14:43;3.1;2.9;2.4;1.8;;;;1.0;27.0;
78730;SPS30;68055;51.978;5.658;2023-12-29T01:17:13;2.9;2.7;2.3;1.7;;;;1.0;25.0;
78730;SPS30;68055;51.978;5.658;2023-12-29T01:19:42;2.9;2.7;2.3;1.8;;;;1.0;26.0;
78730;SPS30;68055;51.978;5.658;2023-12-29T01:22:11;3.9;3.7;3.0;2.2;;;;1.0;27.0;
78730;SPS30;68055;51.978;5.658;2023-12-29T01:24:39;3.3;3.1;2.6;1.9;;;;1.0;28.0;
78730;SPS30;68055;51.978;5.658;2023-12-29T01:27:08;3.7;3.5;3.0;2.3;;;;1.0;29.0;
78730;SPS30;68055;51.978;5.658;2023-12-29T01:29:36;3.3;3.1;2.7;2.1;;;;1.0;29.0;
78730;SPS30;68055;51.978;5.658;2023-12-29T01:32:05;2.8;2.7;2.3;1.8;;;;1.0;29.0;
78730;SPS30;68055;51.978;5.658;2023-12-29T01:34:34;2.9;2.7;2.4;1.9;;;;1.0;28.0;
78730;SPS30;68055;51.978;5.658;2023-12-29T01:37:03;2.1;2.0;1.8;1.5;;;;1.0;27.0;
78730;SPS30;68055;51.978;5.658;2023-12-29T01:39:32;3.3;3.1;2.8;2.2;;;;1.0;27.0;
78730;SPS30;68055;51.978;5.658;2023-12-29T01:42:01;3.3;3.1;2.7;2.1;;;;1.0;27.0;
78730;SPS30;68055;51.978;5.658;2023-12-29T01:44:30;3.5;3.3;2.9;2.3;;;;1.0;27.0;
78730;SPS30;68055;51.978;5.658;2023-12-29T01:47:00;2.6;2.5;2.2;1.8;;;;1.0;27.0;
78730;SPS30;68055;51.978;5.658;2023-12-29T01:49:33;2.8;2.7;2.3;1.8;;;;1.0;26.0;
78730;SPS30;68055;51.978;5.658;2023-12-29T01:52:02;4.1;3.9;3.3;2.5;;;;1.0;27.0;
78730;SPS30;68055;51.978;5.658;2023-12-29T01:54:32;2.8;2.7;2.4;1.9;;;;1.0;27.0;
78730;SPS30;68055;51.978;5.658;2023-12-29T01:57:04;3.0;2.8;2.5;2.0;;;;1.0;29.0;
78730;SPS30;68055;51.978;5.658;2023-12-29T01:59:34;2.8;2.6;2.3;1.9;;;;1.0;30.0;
78730;SPS30;68055;51.978;5.658;2023-12-29T02:02:04;2.9;2.8;2.5;2.1;;;;1.0;31.0;
78730;SPS30;68055;51.978;5.658;2023-12-29T02:04:33;3.0;2.9;2.6;2.1;;;;1.0;35.0;
78730;SPS30;68055;51.978;5.658;2023-12-29T02:07:03;2.7;2.6;2.3;1.9;;;;1.0;40.0;
78730;SPS30;68055;51.978;5.658;2023-12-29T02:09:31;2.8;2.7;2.4;2.0;;;;1.0;39.0;
78730;SPS30;68055;51.978;5.658;2023-12-29T02:12:02;2.8;2.7;2.4;2.0;;;;1.0;37.0;
78730;SPS30;68055;51.978;5.658;2023-12-29T02:14:31;2.8;2.7;2.4;2.0;;;;1.0;33.0;
78730;SPS30;68055;51.978;5.658;2023-12-29T02:17:01;2.8;2.7;2.4;1.9;;;;1.0;31.0;
78730;SPS30;68055;51.978;5.658;2023-12-29T02:19:39;2.7;2.6;2.3;1.9;;;;1.0;29.0;
78730;SPS30;68055;51.978;5.658;2023-12-29T02:22:10;3.4;3.3;2.9;2.3;;;;1.0;30.0;
78730;SPS30;68055;51.978;5.658;2023-12-29T02:24:39;3.2;3.1;2.8;2.3;;;;1.0;30.0;
78730;SPS30;68055;51.978;5.658;2023-12-29T02:27:16;2.6;2.5;2.2;1.8;;;;1.0;30.0;
78730;SPS30;68055;51.978;5.658;2023-12-29T02:29:53;2.9;2.7;2.5;2.0;;;;1.0;29.0;
78730;SPS30;68055;51.978;5.658;2023-12-29T02:32:29;3.0;2.8;2.5;2.1;;;;1.0;30.0;
78730;SPS30;68055;51.978;5.658;2023-12-29T02:34:58;2.8;2.7;2.4;2.0;;;;1.0;32.0;
78730;SPS30;68055;51.978;5.658;2023-12-29T02:37:33;2.8;2.7;2.4;2.0;;;;1.0;33.0;
78730;SPS30;68055;51.978;5.658;2023-12-29T02:40:05;3.0;2.8;2.5;2.0;;;;1.0;33.0;
78730;SPS30;68055;51.978;5.658;2023-12-29T02:42:34;3.4;3.2;2.8;2.2;;;;1.0;34.0;
78730;SPS30;68055;51.978;5.658;2023-12-29T02:45:03;2.5;2.4;2.1;1.7;;;;1.0;38.0;
78730;SPS30;68055;51.978;5.658;2023-12-29T02:47:32;3.1;3.0;2.6;2.1;;;;1.0;41.0;
78730;SPS30;68055;51.978;5.658;2023-12-29T02:50:01;3.1;2.9;2.6;2.1;;;;1.0;41.0;
78730;SPS30;68055;51.978;5.658;2023-12-29T02:52:29;3.2;3.1;2.8;2.3;;;;1.0;40.0;
78730;SPS30;68055;51.978;5.658;2023-12-29T02:54:58;3.2;3.1;2.8;2.3;;;;1.0;42.0;
78730;SPS30;68055;51.978;5.658;2023-12-29T02:57:26;3.5;3.3;3.0;2.4;;;;1.0;42.0;
78730;SPS30;68055;51.978;5.658;2023-12-29T02:59:55;3.2;3.0;2.6;2.0;;;;1.0;40.0;
78730;SPS30;68055;51.978;5.658;2023-12-29T03:02:24;3.1;3.0;2.6;2.1;;;;1.0;33.0;
78730;SPS30;68055;51.978;5.658;2023-12-29T03:04:53;3.2;3.0;2.6;2.0;;;;1.0;31.0;
78730;SPS30;68055;51.978;5.658;2023-12-29T03:07:22;3.7;3.4;2.9;2.2;;;;1.0;31.0;
78730;SPS30;68055;51.978;5.658;2023-12-29T03:09:50;3.8;3.6;3.1;2.3;;;;1.0;31.0;
78730;SPS30;68055;51.978;5.658;2023-12-29T03:12:19;3.9;3.7;3.2;2.4;;;;1.0;29.0;
78730;SPS30;68055;51.978;5.658;2023-12-29T03:14:49;3.2;3.0;2.5;1.9;;;;1.0;27.0;
78730;SPS30;68055;51.978;5.658;2023-12-29T03:17:18;3.4;3.2;2.8;2.1;;;;1.0;24.0;
78730;SPS30;68055;51.978;5.658;2023-12-29T03:19:47;3.8;3.6;3.1;2.3;;;;1.0;21.0;
78730;SPS30;68055;51.978;5.658;2023-12-29T03:22:15;3.4;3.2;2.8;2.2;;;;1.0;20.0;
78730;SPS30;68055;51.978;5.658;2023-12-29T03:24:44;3.7;3.5;3.0;2.3;;;;1.0;18.0;
78730;SPS30;68055;51.978;5.658;2023-12-29T03:27:13;4.2;3.9;3.3;2.5;;;;1.0;18.0;
78730;SPS30;68055;51.978;5.658;2023-12-29T03:29:41;3.8;3.5;3.0;2.2;;;;1.0;19.0;
78730;SPS30;68055;51.978;5.658;2023-12-29T03:32:10;4.7;4.4;3.7;2.6;;;;1.0;19.0;
78730;SPS30;68055;51.978;5.658;2023-12-29T03:34:41;4.2;3.9;3.2;2.2;;;;1.0;18.0;
78730;SPS30;68055;51.978;5.658;2023-12-29T03:37:10;4.4;4.1;3.3;2.3;;;;1.0;18.0;
78730;SPS30;68055;51.978;5.658;2023-12-29T03:39:38;3.7;3.4;2.8;2.1;;;;1.0;18.0;
78730;SPS30;68055;51.978;5.658;2023-12-29T03:42:07;4.1;3.8;3.1;2.2;;;;1.0;16.0;
78730;SPS30;68055;51.978;5.658;2023-12-29T03:44:36;4.5;4.2;3.4;2.4;;;;1.0;16.0;
78730;SPS30;68055;51.978;5.658;2023-12-29T03:47:04;4.5;4.2;3.5;2.4;;;;1.0;15.0;
78730;SPS30;68055;51.978;5.658;2023-12-29T03:49:33;4.1;3.8;3.2;2.2;;;;1.0;15.0;
78730;SPS30;68055;51.978;5.658;2023-12-29T03:52:02;4.9;4.5;3.8;2.7;;;;1.0;16.0;
78730;SPS30;68055;51.978;5.658;2023-12-29T03:54:31;4.7;4.3;3.5;2.4;;;;1.0;15.0;
78730;SPS30;68055;51.978;5.658;2023-12-29T03:56:59;5.3;4.9;4.0;2.8;;;;1.0;15.0;
78730;SPS30;68055;51.978;5.658;2023-12-29T03:59:28;5.9;5.4;4.4;3.0;;;;1.0;15.0;
78730;SPS30;68055;51.978;5.658;2023-12-29T04:01:57;4.2;3.9;3.2;2.3;;;;1.0;14.0;
78730;SPS30;68055;51.978;5.658;2023-12-29T04:04:25;5.0;4.6;3.7;2.6;;;;2.0;13.0;
78730;SPS30;68055;51.978;5.658;2023-12-29T04:06:54;6.1;5.6;4.4;2.9;;;;2.0;12.0;
78730;SPS30;68055;51.978;5.658;2023-12-29T04:09:22;5.0;4.6;3.7;2.5;;;;2.0;12.0;
78730;SPS30;68055;51.978;5.658;2023-12-29T04:11:51;5.9;5.4;4.4;3.0;;;;2.0;11.0;
78730;SPS30;68055;51.978;5.658;2023-12-29T04:14:19;5.9;5.4;4.3;2.9;;;;2.0;11.0;
78730;SPS30;68055;51.978;5.658;2023-12-29T04:16:48;6.2;5.6;4.5;2.9;;;;2.0;11.0;
78730;SPS30;68055;51.978;5.658;2023-12-29T04:19:17;6.4;5.9;4.7;3.1;;;;2.0;10.0;
78730;SPS30;68055;51.978;5.658;2023-12-29T04:21:45;5.3;4.9;3.9;2.6;;;;2.0;11.0;
78730;SPS30;68055;51.978;5.658;2023-12-29T04:24:14;4.5;4.2;3.5;2.5;;;;2.0;11.0;
78730;SPS30;68055;51.978;5.658;2023-12-29T04:26:42;4.3;4.0;3.3;2.4;;;;2.0;11.0;
78730;SPS30;68055;51.978;5.658;2023-12-29T04:29:11;4.5;4.1;3.4;2.5;;;;2.0;11.0;
78730;SPS30;68055;51.978;5.658;2023-12-29T04:31:39;5.5;5.1;4.2;3.0;;;;2.0;11.0;
78730;SPS30;68055;51.978;5.658;2023-12-29T04:34:09;4.7;4.4;3.6;2.5;;;;2.0;11.0;
78730;SPS30;68055;51.978;5.658;2023-12-29T04:36:38;5.3;4.9;3.9;2.7;;;;2.0;11.0;
78730;SPS30;68055;51.978;5.658;2023-12-29T04:39:07;4.5;4.2;3.4;2.4;;;;2.0;11.0;
78730;SPS30;68055;51.978;5.658;2023-12-29T04:41:35;4.9;4.6;3.8;2.8;;;;2.0;11.0;
78730;SPS30;68055;51.978;5.658;2023-12-29T04:44:04;5.0;4.6;3.8;2.7;;;;2.0;11.0;
78730;SPS30;68055;51.978;5.658;2023-12-29T04:46:35;4.3;4.0;3.3;2.3;;;;2.0;12.0;
78730;SPS30;68055;51.978;5.658;2023-12-29T04:49:03;5.3;4.9;4.0;2.7;;;;2.0;12.0;
78730;SPS30;68055;51.978;5.658;2023-12-29T04:51:32;5.4;5.0;4.0;2.6;;;;2.0;12.0;
78730;SPS30;68055;51.978;5.658;2023-12-29T04:54:03;4.5;4.2;3.4;2.4;;;;2.0;13.0;
78730;SPS30;68055;51.978;5.658;2023-12-29T04:56:33;4.7;4.3;3.5;2.4;;;;2.0;13.0;
78730;SPS30;68055;51.978;5.658;2023-12-29T04:59:02;4.6;4.2;3.4;2.3;;;;2.0;13.0;
78730;SPS30;68055;51.978;5.658;2023-12-29T05:01:32;6.2;5.7;4.6;3.1;;;;2.0;13.0;
78730;SPS30;68055;51.978;5.658;2023-12-29T05:04:01;5.6;5.1;4.2;2.8;;;;2.0;12.0;
78730;SPS30;68055;51.978;5.658;2023-12-29T05:06:30;5.3;4.8;3.9;2.6;;;;2.0;13.0;
78730;SPS30;68055;51.978;5.658;2023-12-29T05:08:58;5.4;4.9;3.9;2.6;;;;2.0;14.0;
78730;SPS30;68055;51.978;5.658;2023-12-29T05:11:27;5.4;5.0;4.0;2.7;;;;2.0;14.0;
78730;SPS30;68055;51.978;5.658;2023-12-29T05:13:56;5.0;4.6;3.7;2.6;;;;2.0;14.0;
78730;SPS30;68055;51.978;5.658;2023-12-29T05:16:24;5.3;4.9;4.0;2.8;;;;2.0;14.0;
78730;SPS30;68055;51.978;5.658;2023-12-29T05:18:53;5.7;5.2;4.2;2.8;;;;2.0;14.0;
78730;SPS30;68055;51.978;5.658;2023-12-29T05:21:22;5.4;4.9;3.9;2.6;;;;2.0;16.0;
78730;SPS30;68055;51.978;5.658;2023-12-29T05:23:52;4.9;4.5;3.6;2.4;;;;2.0;16.0;
78730;SPS30;68055;51.978;5.658;2023-12-29T05:26:23;6.8;6.2;4.9;3.3;;;;2.0;16.0;
78730;SPS30;68055;51.978;5.658;2023-12-29T05:28:52;5.3;4.9;3.9;2.5;;;;2.0;16.0;
78730;SPS30;68055;51.978;5.658;2023-12-29T05:31:20;5.6;5.0;4.0;2.5;;;;2.0;16.0;
78730;SPS30;68055;51.978;5.658;2023-12-29T05:33:49;6.1;5.5;4.3;2.7;;;;2.0;16.0;
78730;SPS30;68055;51.978;5.658;2023-12-29T05:36:18;5.3;4.8;3.8;2.5;;;;2.0;16.0;
78730;SPS30;68055;51.978;5.658;2023-12-29T05:38:47;5.4;4.9;3.8;2.4;;;;2.0;16.0;
78730;SPS30;68055;51.978;5.658;2023-12-29T05:41:16;5.8;5.2;4.1;2.5;;;;2.0;16.0;
78730;SPS30;68055;51.978;5.658;2023-12-29T05:43:44;6.6;6.0;4.8;3.1;;;;2.0;16.0;
78730;SPS30;68055;51.978;5.658;2023-12-29T05:46:13;6.4;5.8;4.6;3.0;;;;2.0;16.0;
78730;SPS30;68055;51.978;5.658;2023-12-29T05:48:42;5.1;4.6;3.6;2.3;;;;2.0;17.0;
78730;SPS30;68055;51.978;5.658;2023-12-29T05:51:10;6.4;5.8;4.6;2.9;;;;2.0;18.0;
78730;SPS30;68055;51.978;5.658;2023-12-29T05:53:41;4.9;4.5;3.5;2.2;;;;2.0;17.0;
78730;SPS30;68055;51.978;5.658;2023-12-29T05:56:11;6.3;5.7;4.3;2.6;;;;2.0;17.0;
78730;SPS30;68055;51.978;5.658;2023-12-29T05:58:41;4.1;3.7;2.9;1.8;;;;2.0;18.0;
78730;SPS30;68055;51.978;5.658;2023-12-29T06:01:10;4.4;4.0;3.1;2.0;;;;2.0;40.0;
78730;SPS30;68055;51.978;5.658;2023-12-29T06:03:39;4.7;4.3;3.3;2.0;;;;2.0;42.0;
78730;SPS30;68055;51.978;5.658;2023-12-29T06:06:08;7.7;6.9;5.3;3.1;;;;2.0;38.0;
78730;SPS30;68055;51.978;5.658;2023-12-29T06:08:37;4.6;4.1;3.2;2.0;;;;2.0;36.0;
78730;SPS30;68055;51.978;5.658;2023-12-29T06:11:05;5.6;5.1;4.0;2.6;;;;2.0;35.0;
78730;SPS30;68055;51.978;5.658;2023-12-29T06:13:34;4.9;4.5;3.5;2.3;;;;2.0;33.0;
78730;SPS30;68055;51.978;5.658;2023-12-29T06:16:03;4.6;4.2;3.3;2.2;;;;2.0;30.0;
78730;SPS30;68055;51.978;5.658;2023-12-29T06:18:32;4.4;4.0;3.2;2.1;;;;2.0;28.0;
78730;SPS30;68055;51.978;5.658;2023-12-29T06:21:01;5.7;5.2;4.1;2.7;;;;2.0;27.0;
78730;SPS30;68055;51.978;5.658;2023-12-29T06:23:30;4.8;4.3;3.5;2.3;;;;2.0;27.0;
78730;SPS30;68055;51.978;5.658;2023-12-29T06:25:59;4.7;4.3;3.5;2.4;;;;2.0;28.0;
78730;SPS30;68055;51.978;5.658;2023-12-29T06:28:27;4.7;4.3;3.5;2.3;;;;2.0;30.0;
78730;SPS30;68055;51.978;5.658;2023-12-29T06:30:56;5.3;4.8;3.9;2.6;;;;2.0;32.0;
78730;SPS30;68055;51.978;5.658;2023-12-29T06:33:25;4.3;4.0;3.2;2.2;;;;2.0;34.0;
78730;SPS30;68055;51.978;5.658;2023-12-29T06:35:53;4.5;4.1;3.3;2.1;;;;2.0;35.0;
78730;SPS30;68055;51.978;5.658;2023-12-29T06:38:22;4.9;4.4;3.5;2.3;;;;2.0;35.0;
78730;SPS30;68055;51.978;5.658;2023-12-29T06:40:51;4.1;3.8;3.0;2.0;;;;2.0;42.0;
78730;SPS30;68055;51.978;5.658;2023-12-29T06:43:20;4.6;4.2;3.4;2.3;;;;2.0;45.0;
78730;SPS30;68055;51.978;5.658;2023-12-29T06:45:48;4.4;4.0;3.2;2.1;;;;2.0;47.0;
78730;SPS30;68055;51.978;5.658;2023-12-29T06:48:17;4.9;4.5;3.6;2.4;;;;2.0;55.0;
78730;SPS30;68055;51.978;5.658;2023-12-29T06:50:46;5.0;4.6;3.6;2.3;;;;2.0;59.0;
78730;SPS30;68055;51.978;5.658;2023-12-29T06:53:15;4.1;3.8;2.9;1.9;;;;2.0;60.0;
78730;SPS30;68055;51.978;5.658;2023-12-29T06:55:43;3.4;3.1;2.4;1.6;;;;2.0;74.0;
78730;SPS30;68055;51.978;5.658;2023-12-29T06:58:14;3.6;3.3;2.7;1.8;;;;2.0;68.0;
78730;SPS30;68055;51.978;5.658;2023-12-29T07:00:42;3.5;3.2;2.6;1.9;;;;2.0;65.0;
78730;SPS30;68055;51.978;5.658;2023-12-29T07:03:13;2.8;2.6;2.2;1.6;;;;2.0;64.0;
78730;SPS30;68055;51.978;5.658;2023-12-29T07:05:43;2.9;2.7;2.2;1.6;;;;2.0;64.0;
78730;SPS30;68055;51.978;5.658;2023-12-29T07:08:14;3.4;3.2;2.7;1.9;;;;2.0;64.0;
78730;SPS30;68055;51.978;5.658;2023-12-29T07:10:43;3.5;3.2;2.6;1.9;;;;2.0;66.0;
78730;SPS30;68055;51.978;5.658;2023-12-29T07:13:14;4.0;3.7;3.0;2.1;;;;2.0;63.0;
78730;SPS30;68055;51.978;5.658;2023-12-29T07:15:43;3.5;3.2;2.6;1.8;;;;2.0;59.0;
78730;SPS30;68055;51.978;5.658;2023-12-29T07:18:11;3.6;3.3;2.6;1.8;;;;2.0;54.0;
78730;SPS30;68055;51.978;5.658;2023-12-29T07:20:40;2.9;2.7;2.2;1.5;;;;2.0;53.0;
78730;SPS30;68055;51.978;5.658;2023-12-29T07:23:08;3.3;3.0;2.5;1.8;;;;2.0;52.0;
78730;SPS30;68055;51.978;5.658;2023-12-29T07:25:37;2.9;2.7;2.3;1.7;;;;2.0;57.0;
78730;SPS30;68055;51.978;5.658;2023-12-29T07:28:06;3.4;3.2;2.6;1.9;;;;2.0;69.0;
78730;SPS30;68055;51.978;5.658;2023-12-29T07:30:35;3.7;3.4;2.9;2.1;;;;2.0;69.0;
78730;SPS30;68055;51.978;5.658;2023-12-29T07:33:04;2.8;2.6;2.2;1.7;;;;1.0;75.0;
78730;SPS30;68055;51.978;5.658;2023-12-29T07:35:33;3.5;3.2;2.8;2.1;;;;1.0;112.0;
78730;SPS30;68055;51.978;5.658;2023-12-29T07:38:01;3.1;2.9;2.5;1.9;;;;1.0;115.0;
78730;SPS30;68055;51.978;5.658;2023-12-29T07:40:30;3.3;3.1;2.7;2.1;;;;1.0;134.0;
78730;SPS30;68055;51.978;5.658;2023-12-29T07:42:58;3.3;3.1;2.7;2.2;;;;1.0;138.0;
78730;SPS30;68055;51.978;5.658;2023-12-29T07:45:27;2.5;2.4;2.1;1.7;;;;1.0;234.0;
78730;SPS30;68055;51.978;5.658;2023-12-29T07:47:56;3.5;3.4;3.0;2.4;;;;1.0;345.0;
78730;SPS30;68055;51.978;5.658;2023-12-29T07:50:25;2.7;2.6;2.4;2.0;;;;1.0;292.0;
78730;SPS30;68055;51.978;5.658;2023-12-29T07:52:53;3.9;3.7;3.3;2.7;;;;1.0;322.0;
78730;SPS30;68055;51.978;5.658;2023-12-29T07:55:22;2.9;2.8;2.6;2.3;;;;1.0;372.0;
78730;SPS30;68055;51.978;5.658;2023-12-29T07:57:51;3.2;3.1;2.9;2.4;;;;1.0;337.0;
78730;SPS30;68055;51.978;5.658;2023-12-29T08:00:20;3.6;3.5;3.2;2.7;;;;1.0;309.0;
78730;SPS30;68055;51.978;5.658;2023-12-29T08:02:51;2.4;2.3;2.1;1.8;;;;1.0;272.0;
78730;SPS30;68055;51.978;5.658;2023-12-29T08:05:19;3.0;2.9;2.7;2.3;;;;1.0;264.0;
78730;SPS30;68055;51.978;5.658;2023-12-29T08:07:48;2.9;2.8;2.6;2.2;;;;1.0;232.0;
78730;SPS30;68055;51.978;5.658;2023-12-29T08:10:17;2.7;2.6;2.4;2.1;;;;1.0;191.0;
78730;SPS30;68055;51.978;5.658;2023-12-29T08:12:45;2.8;2.7;2.5;2.1;;;;1.0;189.0;
78730;SPS30;68055;51.978;5.658;2023-12-29T08:15:14;3.6;3.5;3.2;2.7;;;;1.0;201.0;
78730;SPS30;68055;51.978;5.658;2023-12-29T08:17:43;3.0;2.9;2.8;2.5;;;;1.0;190.0;
78730;SPS30;68055;51.978;5.658;2023-12-29T08:20:12;2.4;2.3;2.2;2.1;;;;1.0;195.0;
78730;SPS30;68055;51.978;5.658;2023-12-29T08:22:41;2.3;2.3;2.2;2.0;;;;1.0;202.0;
78730;SPS30;68055;51.978;5.658;2023-12-29T08:25:12;2.6;2.5;2.4;2.2;;;;1.0;187.0;
78730;SPS30;68055;51.978;5.658;2023-12-29T08:27:40;2.5;2.4;2.4;2.2;;;;1.0;193.0;
78730;SPS30;68055;51.978;5.658;2023-12-29T08:30:09;2.7;2.7;2.6;2.4;;;;1.0;193.0;
78730;SPS30;68055;51.978;5.658;2023-12-29T08:32:38;2.5;2.5;2.4;2.1;;;;1.0;190.0;
78730;SPS30;68055;51.978;5.658;2023-12-29T08:35:07;2.5;2.4;2.3;2.0;;;;1.0;201.0;
78730;SPS30;68055;51.978;5.658;2023-12-29T08:37:35;3.0;3.0;2.8;2.5;;;;1.0;203.0;
78730;SPS30;68055;51.978;5.658;2023-12-29T08:40:07;2.6;2.6;2.5;2.3;;;;1.0;266.0;
78730;SPS30;68055;51.978;5.658;2023-12-29T08:42:36;2.0;2.0;1.9;1.7;;;;1.0;235.0;
78730;SPS30;68055;51.978;5.658;2023-12-29T08:45:05;2.7;2.6;2.5;2.3;;;;1.0;258.0;
78730;SPS30;68055;51.978;5.658;2023-12-29T08:47:34;2.2;2.2;2.1;1.9;;;;1.0;213.0;
78730;SPS30;68055;51.978;5.658;2023-12-29T08:50:03;3.3;3.2;3.0;2.7;;;;1.0;192.0;
78730;SPS30;68055;51.978;5.658;2023-12-29T08:52:32;2.2;2.1;2.0;1.8;;;;1.0;177.0;
78730;SPS30;68055;51.978;5.658;2023-12-29T08:55:02;2.5;2.5;2.4;2.2;;;;1.0;192.0;
78730;SPS30;68055;51.978;5.658;2023-12-29T08:57:32;2.7;2.6;2.5;2.3;;;;1.0;238.0;
78730;SPS30;68055;51.978;5.658;2023-12-29T09:00:01;2.7;2.7;2.6;2.4;;;;1.0;221.0;
78730;SPS30;68055;51.978;5.658;2023-12-29T09:02:30;2.3;2.2;2.2;2.1;;;;1.0;175.0;
78730;SPS30;68055;51.978;5.658;2023-12-29T09:04:59;2.2;2.2;2.2;2.1;;;;1.0;157.0;
78730;SPS30;68055;51.978;5.658;2023-12-29T09:07:28;1.8;1.8;1.8;1.7;;;;1.0;156.0;
78730;SPS30;68055;51.978;5.658;2023-12-29T09:09:56;2.6;2.6;2.5;2.3;;;;1.0;155.0;
78730;SPS30;68055;51.978;5.658;2023-12-29T09:12:25;2.1;2.1;2.0;1.8;;;;1.0;161.0;
78730;SPS30;68055;51.978;5.658;2023-12-29T09:14:53;1.9;1.9;1.8;1.7;;;;1.0;161.0;
78730;SPS30;68055;51.978;5.658;2023-12-29T09:17:22;2.6;2.6;2.5;2.3;;;;1.0;163.0;
78730;SPS30;68055;51.978;5.658;2023-12-29T09:19:50;2.8;2.8;2.7;2.4;;;;1.0;164.0;
78730;SPS30;68055;51.978;5.658;2023-12-29T09:22:19;2.7;2.7;2.6;2.3;;;;1.0;407.0;
78730;SPS30;68055;51.978;5.658;2023-12-29T09:24:48;1.7;1.6;1.6;1.5;;;;1.0;421.0;
78730;SPS30;68055;51.978;5.658;2023-12-29T09:27:16;2.1;2.1;2.0;1.9;;;;1.0;354.0;
78730;SPS30;68055;51.978;5.658;2023-12-29T09:29:45;2.0;2.0;2.0;1.8;;;;1.0;313.0;
78730;SPS30;68055;51.978;5.658;2023-12-29T09:32:14;2.4;2.3;2.3;2.1;;;;1.0;301.0;
78730;SPS30;68055;51.978;5.658;2023-12-29T09:34:42;2.3;2.3;2.2;2.0;;;;1.0;255.0;
78730;SPS30;68055;51.978;5.658;2023-12-29T09:37:11;2.1;2.1;2.0;1.8;;;;1.0;228.0;
78730;SPS30;68055;51.978;5.658;2023-12-29T09:39:40;2.1;2.1;2.0;1.8;;;;1.0;214.0;
78730;SPS30;68055;51.978;5.658;2023-12-29T09:42:09;1.9;1.9;1.8;1.6;;;;1.0;200.0;
78730;SPS30;68055;51.978;5.658;2023-12-29T09:44:47;1.9;1.9;1.8;1.7;;;;1.0;195.0;
78730;SPS30;68055;51.978;5.658;2023-12-29T09:47:20;1.8;1.8;1.7;1.6;;;;1.0;202.0;
78730;SPS30;68055;51.978;5.658;2023-12-29T09:49:51;1.9;1.9;1.8;1.6;;;;1.0;182.0;
78730;SPS30;68055;51.978;5.658;2023-12-29T09:52:21;2.0;1.9;1.9;1.7;;;;1.0;171.0;
78730;SPS30;68055;51.978;5.658;2023-12-29T09:54:51;1.5;1.4;1.4;1.2;;;;1.0;170.0;
78730;SPS30;68055;51.978;5.658;2023-12-29T09:57:20;1.7;1.6;1.6;1.5;;;;1.0;183.0;
78730;SPS30;68055;51.978;5.658;2023-12-29T09:59:50;2.0;2.0;1.9;1.8;;;;1.0;187.0;
78730;SPS30;68055;51.978;5.658;2023-12-29T10:02:20;2.0;1.9;1.9;1.7;;;;1.0;187.0;
78730;SPS30;68055;51.978;5.658;2023-12-29T10:04:49;2.6;2.6;2.5;2.3;;;;1.0;211.0;
78730;SPS30;68055;51.978;5.658;2023-12-29T10:07:20;2.3;2.3;2.2;2.0;;;;1.0;204.0;
78730;SPS30;68055;51.978;5.658;2023-12-29T10:09:55;2.2;2.1;2.1;1.9;;;;1.0;169.0;
78730;SPS30;68055;51.978;5.658;2023-12-29T10:12:26;1.7;1.7;1.6;1.5;;;;1.0;180.0;
78730;SPS30;68055;51.978;5.658;2023-12-29T10:15:00;1.9;1.9;1.8;1.7;;;;1.0;179.0;
78730;SPS30;68055;51.978;5.658;2023-12-29T10:17:40;1.7;1.6;1.6;1.5;;;;1.0;202.0;
78730;SPS30;68055;51.978;5.658;2023-12-29T10:20:19;1.9;1.9;1.8;1.7;;;;1.0;219.0;
78730;SPS30;68055;51.978;5.658;2023-12-29T10:23:03;1.8;1.8;1.8;1.7;;;;1.0;214.0;
78730;SPS30;68055;51.978;5.658;2023-12-29T10:25:36;2.3;2.3;2.3;2.2;;;;1.0;203.0;
78730;SPS30;68055;51.978;5.658;2023-12-29T10:28:05;2.8;2.8;2.8;2.7;;;;1.0;182.0;
78730;SPS30;68055;51.978;5.658;2023-12-29T10:30:34;2.1;2.1;2.1;2.0;;;;1.0;178.0;
78730;SPS30;68055;51.978;5.658;2023-12-29T10:33:04;2.2;2.2;2.2;2.1;;;;1.0;182.0;
78730;SPS30;68055;51.978;5.658;2023-12-29T10:35:34;2.4;2.3;2.3;2.2;;;;1.0;177.0;
78730;SPS30;68055;51.978;5.658;2023-12-29T10:38:10;1.9;1.9;1.9;1.9;;;;1.0;178.0;
78730;SPS30;68055;51.978;5.658;2023-12-29T10:40:40;1.9;1.9;1.9;1.8;;;;1.0;171.0;
78730;SPS30;68055;51.978;5.658;2023-12-29T10:43:09;1.9;1.9;1.9;1.8;;;;1.0;178.0;
78730;SPS30;68055;51.978;5.658;2023-12-29T10:45:38;2.0;2.0;2.0;1.9;;;;1.0;200.0;
78730;SPS30;68055;51.978;5.658;2023-12-29T10:48:07;2.2;2.2;2.2;2.1;;;;1.0;197.0;
78730;SPS30;68055;51.978;5.658;2023-12-29T10:50:44;1.6;1.6;1.6;1.5;;;;1.0;193.0;
78730;SPS30;68055;51.978;5.658;2023-12-29T10:53:13;1.9;1.9;1.9;1.8;;;;1.0;190.0;
78730;SPS30;68055;51.978;5.658;2023-12-29T10:55:43;1.8;1.8;1.8;1.8;;;;1.0;193.0;
78730;SPS30;68055;51.978;5.658;2023-12-29T10:58:12;1.3;1.3;1.3;1.2;;;;1.0;186.0;
78730;SPS30;68055;51.978;5.658;2023-12-29T11:00:45;1.3;1.3;1.3;1.2;;;;1.0;169.0;
78730;SPS30;68055;51.978;5.658;2023-12-29T11:03:14;1.8;1.8;1.8;1.7;;;;1.0;173.0;
78730;SPS30;68055;51.978;5.658;2023-12-29T11:05:44;1.6;1.6;1.6;1.5;;;;1.0;176.0;
78730;SPS30;68055;51.978;5.658;2023-12-29T11:08:16;1.8;1.8;1.8;1.7;;;;1.0;146.0;
78730;SPS30;68055;51.978;5.658;2023-12-29T11:10:47;1.7;1.7;1.6;1.5;;;;1.0;140.0;
78730;SPS30;68055;51.978;5.658;2023-12-29T11:13:16;1.9;1.9;1.9;1.8;;;;1.0;125.0;
78730;SPS30;68055;51.978;5.658;2023-12-29T11:15:46;1.6;1.6;1.6;1.5;;;;1.0;122.0;
78730;SPS30;68055;51.978;5.658;2023-12-29T11:18:15;1.8;1.8;1.8;1.7;;;;1.0;106.0;
78730;SPS30;68055;51.978;5.658;2023-12-29T11:20:45;1.8;1.8;1.8;1.7;;;;1.0;297.0;
78730;SPS30;68055;51.978;5.658;2023-12-29T11:23:14;1.9;1.9;1.9;1.9;;;;1.0;208.0;
78730;SPS30;68055;51.978;5.658;2023-12-29T11:25:45;1.5;1.5;1.5;1.4;;;;1.0;162.0;
78730;SPS30;68055;51.978;5.658;2023-12-29T11:28:14;1.6;1.6;1.5;1.4;;;;1.0;138.0;
78730;SPS30;68055;51.978;5.658;2023-12-29T11:30:45;1.8;1.8;1.8;1.7;;;;1.0;105.0;
78730;SPS30;68055;51.978;5.658;2023-12-29T11:33:17;1.7;1.7;1.7;1.6;;;;1.0;104.0;
78730;SPS30;68055;51.978;5.658;2023-12-29T11:35:51;2.0;1.9;1.9;1.7;;;;1.0;95.0;
78730;SPS30;68055;51.978;5.658;2023-12-29T11:38:41;2.0;2.0;1.9;1.8;;;;1.0;89.0;
78730;SPS30;68055;51.978;5.658;2023-12-29T11:41:21;2.3;2.2;2.1;1.9;;;;1.0;81.0;
78730;SPS30;68055;51.978;5.658;2023-12-29T11:43:59;1.9;1.9;1.8;1.6;;;;1.0;82.0;
78730;SPS30;68055;51.978;5.658;2023-12-29T11:46:34;2.2;2.1;2.0;1.7;;;;1.0;80.0;
78730;SPS30;68055;51.978;5.658;2023-12-29T11:49:03;1.8;1.7;1.6;1.4;;;;1.0;73.0;
78730;SPS30;68055;51.978;5.658;2023-12-29T11:51:33;1.9;1.8;1.7;1.5;;;;1.0;74.0;
78730;SPS30;68055;51.978;5.658;2023-12-29T11:54:04;2.2;2.1;2.0;1.7;;;;1.0;72.0;
78730;SPS30;68055;51.978;5.658;2023-12-29T11:56:35;2.2;2.1;2.0;1.7;;;;1.0;480.0;
78730;SPS30;68055;51.978;5.658;2023-12-29T11:59:16;2.2;2.1;2.0;1.7;;;;1.0;403.0;
78730;SPS30;68055;51.978;5.658;2023-12-29T12:01:46;1.6;1.5;1.4;1.2;;;;1.0;353.0;
78730;SPS30;68055;51.978;5.658;2023-12-29T12:07:07;2.2;2.1;1.8;1.5;;;;1.0;252.0;
78730;SPS30;68055;51.978;5.658;2023-12-29T12:09:37;2.3;2.2;1.9;1.5;;;;1.0;205.0;
78730;SPS30;68055;51.978;5.658;2023-12-29T12:12:06;2.8;2.7;2.3;1.7;;;;1.0;183.0;
78730;SPS30;68055;51.978;5.658;2023-12-29T12:14:47;2.7;2.5;2.1;1.5;;;;1.0;146.0;
78730;SPS30;68055;51.978;5.658;2023-12-29T12:17:32;3.0;2.7;2.2;1.5;;;;1.0;209.0;
78730;SPS30;68055;51.978;5.658;2023-12-29T12:20:04;3.1;2.8;2.3;1.5;;;;1.0;214.0;
78730;SPS30;68055;51.978;5.658;2023-12-29T12:22:37;2.7;2.5;2.0;1.4;;;;1.0;164.0;
78730;SPS30;68055;51.978;5.658;2023-12-29T12:25:07;2.7;2.5;2.0;1.4;;;;1.0;152.0;